Ayer, MA

3:28 AM EDT on May 26, 2017 (GMT -0400)
Washington-Highland | | Change Station

Elev 312 ft 42.56 °N, 71.59 °W | Updated 12 seconds ago

Rain
Rain
47.7 °F
Feels Like 48 °F
N
1.1
Wind Variable Wind from ESE

Today
High -- | Low -- °F
--% Chance of Precip.
Yesterday
High -- | Low -- °F
Precip. -- in
Pressure 29.57 in
Visibility 6.0 miles
Clouds Few 900 ft
Scattered Clouds 7000 ft
Overcast 8000 ft
Windchill 48 °F
Dew Point 46 °F
Humidity 93%
Rainfall 0.91 in
Snow Depth Not available.
5:14 AM 8:12 PM
New Moon, 0% visible
METAR KFIT 260652Z AUTO VRB05G14KT 6SM -RA BR FEW009 SCT070 OVC080 10/09 A2956 RMK AO2 SLP012 P0022 T01000089
Pressure 29.57 in
Visibility 6.0 miles
Clouds Few 900 ft
Scattered Clouds 7000 ft
Overcast 8000 ft
Windchill 48 °F
Dew Point 46 °F
Humidity 93%
Rainfall 0.91 in
Snow Depth Not available.
5:14 AM 8:12 PM
New Moon, 0% visible
METAR KFIT 260652Z AUTO VRB05G14KT 6SM -RA BR FEW009 SCT070 OVC080 10/09 A2956 RMK AO2 SLP012 P0022 T01000089

Get Severe Weather Alerts

Thanks for signing up!

Be on the lookout for a verification email in your inbox.

You'll start receiving the daily forecast at 6 AM.

×

10-Day Weather Forecast

Almanac

Astronomy

May. 26, 2017 Rise Set
Actual Time
Civil Twilight
Nautical Twilight
Astronomical Twilight
Moon
Length of Visible Light
Length of Day
Tomorrow will be .
, % of the Moon is Illuminated

Today's Extremes

State Highs State Lows

Community

WunderPhotos

Category 6

Welcome to Category 6. This is the collective home for Weather Underground's featured writeups by Dr. Jeff Masters (right), Bob Henson (left), Chris Burt, and other regular contributors.

Nearby

Air Quality

  Air Quality AQ Index Pollutant
Not available.

Snow Depth

Station Depth Elevation

Earthquake Activity

City Distance Mag. Time & Date
Minimum magnitude displayed is 2.5.

Coastal Water Temperatures

Place Temperature

Stations

Nearby Weather Stations

Station Location Temp. Windchill Dew Point Humidity Wind Precip. Elev Updated Type
                   

Watches & Warnings

There are currently no watches in effect.